createdAt,value
2024-04-19T00:00:25.433Z,96004.00
2024-04-19T00:01:25.616Z,96002.00
2024-04-19T00:02:25.587Z,96002.00
2024-04-19T00:03:25.780Z,96002.00
2024-04-19T00:04:25.851Z,95998.00
2024-04-19T00:05:25.810Z,95999.00
2024-04-19T00:06:25.969Z,95997.00
2024-04-19T00:07:25.991Z,95995.00
2024-04-19T00:08:26.100Z,95997.00
2024-04-19T00:09:26.219Z,95995.00
2024-04-19T00:10:26.285Z,95996.00
2024-04-19T00:11:26.382Z,95999.00
2024-04-19T00:12:26.496Z,96000.00
2024-04-19T00:13:26.547Z,96003.00
2024-04-19T00:14:26.658Z,96003.00
2024-04-19T00:15:26.782Z,96003.00
2024-04-19T00:16:26.875Z,96005.00
2024-04-19T00:17:26.916Z,96005.00
2024-04-19T00:18:27.100Z,96006.00
2024-04-19T00:19:27.092Z,96007.00
2024-04-19T00:20:27.235Z,96006.00
2024-04-19T00:21:27.377Z,96006.00
2024-04-19T00:22:27.400Z,96008.00
2024-04-19T00:23:27.468Z,96010.00
2024-04-19T00:24:27.612Z,96007.00
2024-04-19T00:25:27.655Z,96011.00
2024-04-19T00:26:27.757Z,96011.00
2024-04-19T00:27:27.844Z,96011.00
2024-04-19T00:28:27.948Z,96007.00
2024-04-19T00:29:28.023Z,96011.00
2024-04-19T00:30:28.174Z,96010.00
2024-04-19T00:31:28.204Z,96010.00
2024-04-19T00:32:28.347Z,96013.00
2024-04-19T00:33:28.533Z,96010.00
2024-04-19T00:34:28.583Z,96009.00
2024-04-19T00:35:28.608Z,96008.00
2024-04-19T00:36:28.730Z,96006.00
2024-04-19T00:37:28.723Z,96004.00
2024-04-19T00:38:28.838Z,96004.00
2024-04-19T00:39:28.973Z,96004.00
2024-04-19T00:40:29.045Z,96002.00
2024-04-19T00:41:29.089Z,96004.00
2024-04-19T00:42:29.223Z,96002.00
2024-04-19T00:43:29.301Z,96004.00
2024-04-19T00:44:29.378Z,96003.00
2024-04-19T00:45:29.960Z,96004.00
2024-04-19T00:46:29.571Z,96001.00
2024-04-19T00:47:29.721Z,95997.00
2024-04-19T00:48:29.767Z,95995.00
2024-04-19T00:49:29.825Z,95991.00
2024-04-19T00:50:29.936Z,95988.00
2024-04-19T00:51:30.033Z,95986.00
2024-04-19T00:52:30.088Z,95985.00
2024-04-19T00:53:30.195Z,95983.00
2024-04-19T00:54:30.353Z,95982.00
2024-04-19T00:55:30.376Z,95983.00
2024-04-19T00:56:30.451Z,95979.00
2024-04-19T00:57:30.548Z,95979.00
2024-04-19T00:58:30.650Z,95976.00
2024-04-19T00:59:30.730Z,95977.00
2024-04-19T01:00:30.924Z,95978.00
2024-04-19T01:01:31.069Z,95980.00
2024-04-19T01:02:31.034Z,95979.00
2024-04-19T01:03:31.145Z,95981.00
2024-04-19T01:04:32.075Z,95980.00
2024-04-19T01:05:31.270Z,95980.00
2024-04-19T01:06:31.391Z,95982.00
2024-04-19T01:07:31.480Z,95981.00
2024-04-19T01:08:31.594Z,95982.00
2024-04-19T01:09:31.736Z,95982.00
2024-04-19T01:10:31.749Z,95980.00
2024-04-19T01:11:31.930Z,95980.00
2024-04-19T01:12:31.952Z,95980.00
2024-04-19T01:13:32.032Z,95977.00
2024-04-19T01:14:32.139Z,95975.00
2024-04-19T01:15:32.257Z,95974.00
2024-04-19T01:16:32.326Z,95975.00
2024-04-19T01:17:32.495Z,95977.00
2024-04-19T01:18:32.580Z,95981.00
2024-04-19T01:19:32.632Z,95984.00
2024-04-19T01:20:32.741Z,95986.00
2024-04-19T01:21:32.921Z,95989.00
2024-04-19T01:22:32.929Z,95990.00
2024-04-19T01:23:33.031Z,95988.00
2024-04-19T01:24:33.163Z,95987.00
2024-04-19T01:25:33.283Z,95985.00
2024-04-19T01:26:33.327Z,95984.00
2024-04-19T01:27:33.467Z,95982.00
2024-04-19T01:28:33.507Z,95985.00
2024-04-19T01:29:33.611Z,95983.00
2024-04-19T01:30:33.773Z,95985.00
2024-04-19T01:31:33.804Z,95984.00
2024-04-19T01:32:34.016Z,95987.00
2024-04-19T01:33:34.088Z,95985.00
2024-04-19T01:34:34.099Z,95987.00
2024-04-19T01:35:34.176Z,95987.00
2024-04-19T01:36:34.465Z,95985.00
2024-04-19T01:37:34.384Z,95983.00
2024-04-19T01:38:34.506Z,95979.00
2024-04-19T01:39:34.640Z,95978.00
2024-04-19T01:40:34.695Z,95979.00
2024-04-19T01:41:34.769Z,95976.00
2024-04-19T01:42:34.890Z,95976.00
2024-04-19T01:43:34.981Z,95974.00
2024-04-19T01:44:35.075Z,95968.00
2024-04-19T01:45:35.215Z,95968.00
2024-04-19T01:46:35.309Z,95969.00
2024-04-19T01:47:35.439Z,95967.00
2024-04-19T01:48:36.151Z,95966.00
2024-04-19T01:49:35.555Z,95968.00
2024-04-19T01:50:35.665Z,95968.00
2024-04-19T01:51:35.782Z,95971.00
2024-04-19T01:52:35.859Z,95973.00
2024-04-19T01:53:35.967Z,95975.00
2024-04-19T01:54:36.139Z,95979.00
2024-04-19T01:55:36.164Z,95981.00
2024-04-19T01:56:36.272Z,95986.00
2024-04-19T01:57:36.411Z,95987.00
2024-04-19T01:58:36.492Z,95987.00
2024-04-19T01:59:36.582Z,95985.00
2024-04-19T02:00:36.735Z,95983.00
2024-04-19T02:01:36.877Z,95980.00
2024-04-19T02:02:36.874Z,95983.00
2024-04-19T02:03:37.637Z,95985.00
2024-04-19T02:04:37.200Z,95983.00
2024-04-19T02:05:37.176Z,95984.00
2024-04-19T02:06:37.354Z,95980.00
2024-04-19T02:07:37.369Z,95984.00
2024-04-19T02:08:37.461Z,95981.00
2024-04-19T02:09:37.572Z,95980.00
2024-04-19T02:10:37.646Z,95981.00
2024-04-19T02:11:37.845Z,95979.00
2024-04-19T02:12:37.971Z,95978.00
2024-04-19T02:13:37.981Z,95977.00
2024-04-19T02:14:38.082Z,95975.00
2024-04-19T02:15:38.222Z,95976.00
2024-04-19T02:16:38.318Z,95973.00
2024-04-19T02:17:38.475Z,95974.00
2024-04-19T02:18:38.594Z,95971.00
2024-04-19T02:19:38.627Z,95971.00
2024-04-19T02:20:38.732Z,95971.00
2024-04-19T02:21:38.912Z,95972.00
2024-04-19T02:22:38.939Z,95968.00
2024-04-19T02:23:39.179Z,95971.00
2024-04-19T02:24:39.204Z,95969.00
2024-04-19T02:25:39.268Z,95970.00
2024-04-19T02:26:39.389Z,95968.00
2024-04-19T02:27:39.618Z,95968.00
2024-04-19T02:28:39.621Z,95966.00
2024-04-19T02:29:39.724Z,95965.00
2024-04-19T02:30:39.876Z,95963.00
2024-04-19T02:31:39.939Z,95963.00
2024-04-19T02:32:40.120Z,95962.00
2024-04-19T02:33:40.244Z,95961.00
2024-04-19T02:34:41.545Z,95958.00
2024-04-19T02:35:40.419Z,95959.00
2024-04-19T02:36:40.546Z,95956.00
2024-04-19T02:37:40.627Z,95956.00
2024-04-19T02:38:40.735Z,95957.00
2024-04-19T02:39:40.872Z,95956.00
2024-04-19T02:40:40.959Z,95956.00
2024-04-19T02:41:41.072Z,95954.00
2024-04-19T02:42:41.276Z,95957.00
2024-04-19T02:43:41.287Z,95954.00
2024-04-19T02:44:41.405Z,95950.00
2024-04-19T02:45:47.779Z,95951.00
2024-04-19T02:46:42.607Z,95947.00
2024-04-19T02:47:41.549Z,95946.00
2024-04-19T02:48:41.529Z,95945.00
2024-04-19T02:49:41.534Z,95945.00
2024-04-19T02:50:41.546Z,95943.00
2024-04-19T02:51:41.571Z,95941.00
2024-04-19T02:52:41.524Z,95940.00
2024-04-19T02:53:41.534Z,95937.00
2024-04-19T02:54:41.555Z,95938.00
2024-04-19T02:55:41.538Z,95938.00
2024-04-19T02:56:41.547Z,95938.00
2024-04-19T02:57:41.595Z,95939.00
2024-04-19T02:58:41.568Z,95936.00
2024-04-19T02:59:41.539Z,95935.00
2024-04-19T03:00:41.683Z,95933.00
2024-04-19T03:01:41.560Z,95934.00
2024-04-19T03:02:41.623Z,95932.00
2024-04-19T03:03:41.823Z,95931.00
2024-04-19T03:04:41.877Z,95931.00
2024-04-19T03:05:41.966Z,95928.00
2024-04-19T03:06:42.121Z,95925.00
2024-04-19T03:07:42.182Z,95926.00
2024-04-19T03:08:42.318Z,95928.00
2024-04-19T03:09:42.463Z,95929.00
2024-04-19T03:10:42.553Z,95930.00
2024-04-19T03:11:42.672Z,95933.00
2024-04-19T03:12:42.826Z,95933.00
2024-04-19T03:13:42.877Z,95933.00
2024-04-19T03:14:42.976Z,95934.00
2024-04-19T03:15:43.100Z,95934.00
2024-04-19T03:16:43.220Z,95935.00
2024-04-19T03:17:43.390Z,95937.00
2024-04-19T03:18:43.507Z,95940.00
2024-04-19T03:19:43.547Z,95945.00
2024-04-19T03:20:43.666Z,95943.00
2024-04-19T03:21:43.873Z,95943.00
2024-04-19T03:22:44.012Z,95942.00
2024-04-19T03:23:44.030Z,95939.00
2024-04-19T03:24:44.224Z,95940.00
2024-04-19T03:25:44.237Z,95940.00
2024-04-19T03:26:44.366Z,95939.00
2024-04-19T03:27:44.531Z,95938.00
2024-04-19T03:28:44.583Z,95938.00
2024-04-19T03:29:44.677Z,95939.00
2024-04-19T03:30:44.873Z,95936.00
2024-04-19T03:31:44.928Z,95934.00
2024-04-19T03:32:45.079Z,95932.00
2024-04-19T03:33:45.306Z,95931.00
2024-04-19T03:34:45.248Z,95927.00
2024-04-19T03:35:45.368Z,95925.00
2024-04-19T03:36:45.526Z,95923.00
2024-04-19T03:37:45.558Z,95919.00
2024-04-19T03:38:45.694Z,95918.00
2024-04-19T03:39:46.762Z,95917.00
2024-04-19T03:40:45.934Z,95914.00
2024-04-19T03:41:45.984Z,95909.00
2024-04-19T03:42:46.228Z,95906.00
2024-04-19T03:43:46.275Z,95909.00
2024-04-19T03:44:46.372Z,95907.00
2024-04-19T03:45:46.836Z,95907.00
2024-04-19T03:46:46.630Z,95906.00
2024-04-19T03:47:46.714Z,95907.00
2024-04-19T03:48:46.896Z,95905.00
2024-04-19T03:49:46.892Z,95907.00
2024-04-19T03:50:47.004Z,95903.00
2024-04-19T03:51:47.156Z,95903.00
2024-04-19T03:52:47.242Z,95903.00
2024-04-19T03:53:47.353Z,95905.00
2024-04-19T03:54:47.517Z,95904.00
2024-04-19T03:55:47.600Z,95905.00
2024-04-19T03:56:47.676Z,95906.00
2024-04-19T03:57:47.928Z,95906.00
2024-04-19T03:58:47.902Z,95907.00
2024-04-19T03:59:48.008Z,95905.00
2024-04-19T04:00:48.281Z,95905.00
2024-04-19T04:01:48.227Z,95903.00
2024-04-19T04:02:48.354Z,95901.00
2024-04-19T04:03:48.498Z,95900.00
2024-04-19T04:04:48.597Z,95901.00
2024-04-19T04:05:48.665Z,95901.00
2024-04-19T04:06:48.830Z,95900.00
2024-04-19T04:07:48.923Z,95901.00
2024-04-19T04:08:48.967Z,95903.00
2024-04-19T04:09:49.103Z,95901.00
2024-04-19T04:10:49.262Z,95902.00
2024-04-19T04:11:49.320Z,95901.00
2024-04-19T04:12:49.430Z,95900.00
2024-04-19T04:13:49.487Z,95901.00
2024-04-19T04:14:49.606Z,95899.00
2024-04-19T04:15:49.724Z,95898.00
2024-04-19T04:16:49.760Z,95898.00
2024-04-19T04:17:49.973Z,95897.00
2024-04-19T04:18:50.078Z,95899.00
2024-04-19T04:19:50.083Z,95901.00
2024-04-19T04:20:50.132Z,95901.00
2024-04-19T04:21:50.278Z,95905.00
2024-04-19T04:22:50.331Z,95900.00
2024-04-19T04:23:50.424Z,95900.00
2024-04-19T04:24:50.626Z,95897.00
2024-04-19T04:25:50.591Z,95896.00
2024-04-19T04:26:50.685Z,95892.00
2024-04-19T04:27:50.787Z,95894.00
2024-04-19T04:28:50.871Z,95895.00
2024-04-19T04:29:50.986Z,95896.00
2024-04-19T04:30:51.091Z,95899.00
2024-04-19T04:31:51.165Z,95899.00
2024-04-19T04:32:51.247Z,95903.00
2024-04-19T04:33:51.329Z,95902.00
2024-04-19T04:34:51.405Z,95903.00
2024-04-19T04:35:51.478Z,95902.00
2024-04-19T04:36:51.581Z,95902.00
2024-04-19T04:37:51.657Z,95902.00
2024-04-19T04:38:51.754Z,95903.00
2024-04-19T04:39:51.854Z,95902.00
2024-04-19T04:40:51.879Z,95904.00
2024-04-19T04:41:51.983Z,95904.00
2024-04-19T04:42:52.168Z,95905.00
2024-04-19T04:43:59.474Z,95905.00
2024-04-19T04:44:59.479Z,95905.00
2024-04-19T04:45:59.542Z,95905.00
2024-04-19T04:46:59.491Z,95906.00
2024-04-19T04:47:59.599Z,95905.00
2024-04-19T04:48:59.540Z,95908.00
2024-04-19T04:49:59.453Z,95908.00
2024-04-19T04:50:59.460Z,95907.00
2024-04-19T04:51:59.466Z,95907.00
2024-04-19T04:52:59.471Z,95908.00
2024-04-19T04:53:59.565Z,95906.00
2024-04-19T04:54:59.461Z,95906.00
2024-04-19T04:55:59.491Z,95908.00
2024-04-19T04:56:59.467Z,95909.00
2024-04-19T04:57:59.597Z,95908.00
2024-04-19T04:58:59.480Z,95910.00
2024-04-19T04:59:59.482Z,95909.00
2024-04-19T05:00:59.699Z,95909.00
2024-04-19T05:01:59.496Z,95908.00
2024-04-19T05:02:59.601Z,95906.00
2024-04-19T05:03:59.527Z,95908.00
2024-04-19T05:05:01.994Z,95908.00
2024-04-19T05:05:59.515Z,95909.00
2024-04-19T05:06:59.609Z,95908.00
2024-04-19T05:07:59.504Z,95909.00
2024-04-19T05:08:59.519Z,95908.00
2024-04-19T05:09:59.537Z,95907.00
2024-04-19T05:10:59.524Z,95906.00
2024-04-19T05:11:59.500Z,95904.00
2024-04-19T05:12:59.507Z,95904.00
2024-04-19T05:13:59.530Z,95902.00
2024-04-19T05:14:59.512Z,95904.00
2024-04-19T05:15:59.560Z,95903.00
2024-04-19T05:16:59.493Z,95906.00
2024-04-19T05:17:59.628Z,95906.00
2024-04-19T05:18:59.610Z,95904.00
2024-04-19T05:19:59.523Z,95906.00
2024-04-19T05:20:59.509Z,95906.00
2024-04-19T05:21:59.523Z,95907.00
2024-04-19T05:22:59.533Z,95903.00
2024-04-19T05:23:59.508Z,95902.00
2024-04-19T05:24:59.602Z,95901.00
2024-04-19T05:25:59.578Z,95900.00
2024-04-19T05:26:59.543Z,95900.00
2024-04-19T05:27:59.536Z,95897.00
2024-04-19T05:28:59.550Z,95896.00
2024-04-19T05:29:59.556Z,95896.00
2024-04-19T05:30:59.558Z,95894.00
2024-04-19T05:31:59.641Z,95896.00
2024-04-19T05:32:59.580Z,95895.00
2024-04-19T05:33:59.608Z,95896.00
2024-04-19T05:34:59.715Z,95893.00
2024-04-19T05:35:59.768Z,95894.00
2024-04-19T05:36:59.875Z,95893.00
2024-04-19T05:37:59.944Z,95894.00
2024-04-19T05:39:00.048Z,95896.00
2024-04-19T05:40:00.186Z,95895.00
2024-04-19T05:41:00.208Z,95896.00
2024-04-19T05:42:00.329Z,95879.00
2024-04-19T05:43:00.451Z,95895.00
2024-04-19T05:44:00.428Z,95894.00
2024-04-19T05:45:00.502Z,95894.00
2024-04-19T05:46:00.518Z,95892.00
2024-04-19T05:47:00.521Z,95896.00
2024-04-19T05:48:00.690Z,95895.00
2024-04-19T05:49:00.649Z,95893.00
2024-04-19T05:50:00.643Z,95892.00
2024-04-19T05:51:00.586Z,95893.00
2024-04-19T05:52:00.581Z,95891.00
2024-04-19T05:53:00.577Z,95891.00
2024-04-19T05:54:00.576Z,95891.00
2024-04-19T05:55:00.689Z,95891.00
2024-04-19T05:56:00.578Z,95891.00
2024-04-19T05:57:00.581Z,95891.00
2024-04-19T05:58:00.589Z,95890.00
2024-04-19T05:59:00.582Z,95890.00
2024-04-19T06:00:00.597Z,95887.00
2024-04-19T06:01:00.636Z,95886.00
2024-04-19T06:02:00.657Z,95884.00
2024-04-19T06:03:00.748Z,95884.00
2024-04-19T06:04:00.880Z,95883.00
2024-04-19T06:05:00.873Z,95886.00
2024-04-19T06:06:00.960Z,95883.00
2024-04-19T06:07:01.063Z,95884.00
2024-04-19T06:08:01.098Z,95883.00
2024-04-19T06:09:01.180Z,95882.00
2024-04-19T06:10:01.231Z,95881.00
2024-04-19T06:11:01.439Z,95880.00
2024-04-19T06:12:01.432Z,95881.00
2024-04-19T06:13:01.550Z,95882.00
2024-04-19T06:14:01.614Z,95882.00
2024-04-19T06:15:01.678Z,95881.00
2024-04-19T06:16:01.821Z,95880.00
2024-04-19T06:17:01.832Z,95876.00
2024-04-19T06:18:02.055Z,95875.00
2024-04-19T06:19:02.088Z,95874.00
2024-04-19T06:20:02.082Z,95873.00
2024-04-19T06:21:02.173Z,95871.00
2024-04-19T06:22:02.305Z,95871.00
2024-04-19T06:23:02.311Z,95871.00
2024-04-19T06:24:02.374Z,95870.00
2024-04-19T06:25:02.538Z,95870.00
2024-04-19T06:26:02.518Z,95870.00
2024-04-19T06:27:02.603Z,95875.00
2024-04-19T06:28:02.728Z,95874.00
2024-04-19T06:29:02.766Z,95873.00
2024-04-19T06:30:02.855Z,95873.00
2024-04-19T06:31:02.939Z,95872.00
2024-04-19T06:32:03.061Z,95872.00
2024-04-19T06:33:03.170Z,95870.00
2024-04-19T06:34:03.163Z,95870.00
2024-04-19T06:35:03.243Z,95870.00
2024-04-19T06:36:03.340Z,95868.00
2024-04-19T06:37:03.412Z,95867.00
2024-04-19T06:38:03.524Z,95866.00
2024-04-19T06:39:03.627Z,95865.00
2024-04-19T06:40:07.573Z,95865.00
2024-04-19T06:41:03.678Z,95862.00
2024-04-19T06:42:03.720Z,95862.00
2024-04-19T06:43:03.666Z,95862.00
2024-04-19T06:44:03.685Z,95859.00
2024-04-19T06:45:03.643Z,95863.00
2024-04-19T06:46:03.665Z,95861.00
2024-04-19T06:47:03.674Z,95862.00
2024-04-19T06:48:03.724Z,95860.00
2024-04-19T06:49:03.701Z,95860.00
2024-04-19T06:50:03.675Z,95860.00
2024-04-19T06:51:03.658Z,95861.00
2024-04-19T06:52:03.701Z,95861.00
2024-04-19T06:53:03.660Z,95861.00
2024-04-19T06:54:03.669Z,95861.00
2024-04-19T06:55:27.168Z,95863.00
2024-04-19T06:56:03.775Z,95862.00
2024-04-19T06:57:03.852Z,95860.00
2024-04-19T06:58:03.936Z,95863.00
2024-04-19T06:59:03.939Z,95863.00
2024-04-19T07:00:15.760Z,95864.00
2024-04-19T07:01:15.565Z,95864.00
2024-04-19T07:02:05.112Z,95864.00
2024-04-19T07:03:05.914Z,95864.00
2024-04-19T07:04:04.316Z,95864.00
2024-04-19T07:05:04.079Z,95864.00
2024-04-19T07:06:04.004Z,95866.00
2024-04-19T07:07:04.016Z,95868.00
2024-04-19T07:08:04.002Z,95867.00
2024-04-19T07:09:04.001Z,95868.00
2024-04-19T07:10:04.904Z,95865.00
2024-04-19T07:11:03.973Z,95866.00
2024-04-19T07:12:04.026Z,95864.00
2024-04-19T07:13:04.288Z,95862.00
2024-04-19T07:14:03.997Z,95861.00
2024-04-19T07:15:03.983Z,95856.00
2024-04-19T07:16:03.984Z,95856.00
2024-04-19T07:17:04.011Z,95853.00
2024-04-19T07:18:04.041Z,95852.00
2024-04-19T07:19:04.012Z,95849.00
2024-04-19T07:20:04.006Z,95848.00
2024-04-19T07:21:04.002Z,95841.00
2024-04-19T07:22:03.997Z,95842.00
2024-04-19T07:23:03.992Z,95840.00
2024-04-19T07:24:04.007Z,95841.00
2024-04-19T07:25:04.083Z,95842.00
2024-04-19T07:26:04.001Z,95841.00
2024-04-19T07:27:03.990Z,95839.00
2024-04-19T07:28:04.133Z,95840.00
2024-04-19T07:29:04.147Z,95839.00
2024-04-19T07:30:04.255Z,95839.00
2024-04-19T07:31:04.356Z,95836.00
2024-04-19T07:32:04.475Z,95833.00
2024-04-19T07:33:04.581Z,95832.00
2024-04-19T07:34:04.635Z,95834.00
2024-04-19T07:35:04.747Z,95832.00
2024-04-19T07:36:04.810Z,95830.00
2024-04-19T07:37:04.940Z,95831.00
2024-04-19T07:38:05.008Z,95832.00
2024-04-19T07:39:05.091Z,95829.00
2024-04-19T07:40:05.197Z,95829.00
2024-04-19T07:41:05.243Z,95828.00
2024-04-19T07:42:05.350Z,95827.00
2024-04-19T07:43:05.542Z,95827.00
2024-04-19T07:44:05.525Z,95824.00
2024-04-19T07:45:05.637Z,95822.00
2024-04-19T07:46:05.674Z,95821.00
2024-04-19T07:47:05.772Z,95820.00
2024-04-19T07:48:05.961Z,95818.00
2024-04-19T07:49:06.131Z,95816.00
2024-04-19T07:50:06.037Z,95816.00
2024-04-19T07:51:06.132Z,95808.00
2024-04-19T07:52:06.239Z,95809.00
2024-04-19T07:53:06.317Z,95811.00
2024-04-19T07:54:06.416Z,95807.00
2024-04-19T07:55:06.504Z,95806.00
2024-04-19T07:56:06.632Z,95800.00
2024-04-19T07:57:06.691Z,95801.00
2024-04-19T07:58:06.773Z,95798.00
2024-04-19T07:59:06.886Z,95800.00
2024-04-19T08:00:06.943Z,95795.00
2024-04-19T08:01:07.126Z,95795.00
2024-04-19T08:02:07.286Z,95792.00
2024-04-19T08:03:07.192Z,95789.00
2024-04-19T08:04:07.328Z,95786.00
2024-04-19T08:05:07.663Z,95787.00
2024-04-19T08:06:07.406Z,95787.00
2024-04-19T08:07:07.525Z,95786.00
2024-04-19T08:08:07.604Z,95786.00
2024-04-19T08:09:07.696Z,95785.00
2024-04-19T08:10:07.809Z,95784.00
2024-04-19T08:11:07.895Z,95781.00
2024-04-19T08:12:08.054Z,95779.00
2024-04-19T08:13:08.124Z,95778.00
2024-04-19T08:14:08.183Z,95776.00
2024-04-19T08:15:08.243Z,95773.00
2024-04-19T08:16:08.380Z,95772.00
2024-04-19T08:17:08.547Z,95767.00
2024-04-19T08:18:09.412Z,95769.00
2024-04-19T08:19:08.410Z,95769.00
2024-04-19T08:20:08.414Z,95769.00
2024-04-19T08:21:08.438Z,95768.00
2024-04-19T08:22:08.416Z,95763.00
2024-04-19T08:23:08.484Z,95762.00
2024-04-19T08:24:08.470Z,95762.00
2024-04-19T08:25:08.474Z,95760.00
2024-04-19T08:26:08.487Z,95760.00
2024-04-19T08:27:08.464Z,95757.00
2024-04-19T08:28:08.491Z,95751.00
2024-04-19T08:29:18.175Z,95753.00
2024-04-19T08:30:09.604Z,95750.00
2024-04-19T08:31:08.599Z,95751.00
2024-04-19T08:32:08.663Z,95753.00
2024-04-19T08:33:08.648Z,95748.00
2024-04-19T08:34:08.718Z,95746.00
2024-04-19T08:35:08.601Z,95747.00
2024-04-19T08:36:08.650Z,95747.00
2024-04-19T08:37:08.599Z,95751.00
2024-04-19T08:38:08.617Z,95750.00
2024-04-19T08:39:08.581Z,95749.00
2024-04-19T08:40:08.682Z,95746.00
2024-04-19T08:41:08.743Z,95741.00
2024-04-19T08:42:08.858Z,95738.00
2024-04-19T08:43:08.944Z,95740.00
2024-04-19T08:44:09.067Z,95736.00
2024-04-19T08:45:09.448Z,95733.00
2024-04-19T08:46:09.662Z,95733.00
2024-04-19T08:47:09.437Z,95732.00
2024-04-19T08:48:09.400Z,95727.00
2024-04-19T08:49:09.468Z,95727.00
2024-04-19T08:50:09.495Z,95727.00
2024-04-19T08:51:09.483Z,95725.00
2024-04-19T08:53:15.453Z,95722.00
2024-04-19T08:54:10.541Z,95720.00
2024-04-19T08:55:09.543Z,95719.00
2024-04-19T08:56:09.553Z,95716.00
2024-04-19T08:57:09.555Z,95714.00
2024-04-19T08:58:09.567Z,95712.00
2024-04-19T08:59:09.540Z,95711.00
2024-04-19T09:00:14.034Z,95707.00
2024-04-19T09:01:10.623Z,95703.00
2024-04-19T09:02:09.546Z,95704.00
2024-04-19T09:03:09.653Z,95703.00
2024-04-19T09:04:11.502Z,95704.00
2024-04-19T09:05:09.579Z,95704.00
2024-04-19T09:06:09.588Z,95701.00
2024-04-19T09:07:09.593Z,95699.00
2024-04-19T09:08:09.581Z,95701.00
2024-04-19T09:09:09.552Z,95698.00
2024-04-19T09:10:09.614Z,95696.00
2024-04-19T09:11:09.562Z,95699.00
2024-04-19T09:12:09.586Z,95695.00
2024-04-19T09:13:09.555Z,95697.00
2024-04-19T09:14:09.569Z,95699.00
2024-04-19T09:15:09.588Z,95697.00
2024-04-19T09:16:09.582Z,95697.00
2024-04-19T09:17:09.589Z,95697.00
2024-04-19T09:18:09.647Z,95697.00
2024-04-19T09:19:09.588Z,95697.00
2024-04-19T09:20:09.616Z,95694.00
2024-04-19T09:21:09.588Z,95692.00
2024-04-19T09:22:09.597Z,95693.00
2024-04-19T09:23:09.602Z,95693.00
2024-04-19T09:24:09.592Z,95688.00
2024-04-19T09:25:09.611Z,95684.00
2024-04-19T09:26:09.598Z,95684.00
2024-04-19T09:27:15.217Z,95682.00
2024-04-19T09:28:10.628Z,95679.00
2024-04-19T09:29:09.620Z,95678.00
2024-04-19T09:30:09.656Z,95674.00
2024-04-19T09:31:09.643Z,95671.00
2024-04-19T09:32:09.603Z,95666.00
2024-04-19T09:33:09.785Z,95661.00
2024-04-19T09:34:09.686Z,95662.00
2024-04-19T09:35:09.638Z,95660.00
2024-04-19T09:36:09.618Z,95657.00
2024-04-19T09:37:09.623Z,95649.00
2024-04-19T09:38:09.635Z,95649.00
2024-04-19T09:39:12.280Z,95646.00
2024-04-19T09:40:09.648Z,95645.00
2024-04-19T09:41:09.626Z,95644.00
2024-04-19T09:42:09.663Z,95642.00
2024-04-19T09:43:09.740Z,95641.00
2024-04-19T09:44:09.675Z,95638.00
2024-04-19T09:45:09.703Z,95636.00
2024-04-19T09:46:09.695Z,95636.00
2024-04-19T09:47:09.727Z,95633.00
2024-04-19T09:48:09.674Z,95634.00
2024-04-19T09:49:09.703Z,95629.00
2024-04-19T09:50:09.719Z,95619.00
2024-04-19T09:51:09.725Z,95629.00
2024-04-19T09:52:09.698Z,95628.00
2024-04-19T09:53:09.694Z,95626.00
2024-04-19T09:54:13.006Z,95629.00
2024-04-19T09:55:09.680Z,95627.00
2024-04-19T09:56:09.711Z,95622.00
2024-04-19T09:57:09.698Z,95622.00
2024-04-19T09:58:09.706Z,95623.00
2024-04-19T09:59:09.690Z,95619.00
2024-04-19T10:00:09.702Z,95619.00
2024-04-19T10:01:09.767Z,95617.00
2024-04-19T10:02:14.342Z,95617.00
2024-04-19T10:03:10.825Z,95612.00
2024-04-19T10:04:09.771Z,95606.00
2024-04-19T10:05:09.741Z,95602.00
2024-04-19T10:06:09.730Z,95606.00
2024-04-19T10:07:09.733Z,95602.00
2024-04-19T10:08:09.700Z,95601.00
2024-04-19T10:09:09.740Z,95596.00
2024-04-19T10:10:09.741Z,95593.00
2024-04-19T10:11:09.843Z,95589.00
2024-04-19T10:12:09.748Z,95592.00
2024-04-19T10:13:09.754Z,95587.00
2024-04-19T10:14:09.780Z,95583.00
2024-04-19T10:15:09.801Z,95582.00
2024-04-19T10:16:09.885Z,95579.00
2024-04-19T10:17:09.900Z,95575.00
2024-04-19T10:18:09.992Z,95572.00
2024-04-19T10:19:10.049Z,95570.00
2024-04-19T10:20:10.098Z,95570.00
2024-04-19T10:21:10.133Z,95565.00
2024-04-19T10:22:10.209Z,95563.00
2024-04-19T10:23:10.288Z,95561.00
2024-04-19T10:24:10.363Z,95559.00
2024-04-19T10:25:10.418Z,95557.00
2024-04-19T10:26:10.654Z,95557.00
2024-04-19T10:27:10.581Z,95555.00
2024-04-19T10:28:10.626Z,95553.00
2024-04-19T10:29:10.763Z,95551.00
2024-04-19T10:30:15.965Z,95548.00
2024-04-19T10:31:11.771Z,95546.00
2024-04-19T10:32:10.779Z,95541.00
2024-04-19T10:33:10.762Z,95540.00
2024-04-19T10:34:10.789Z,95538.00
2024-04-19T10:35:10.796Z,95535.00
2024-04-19T10:36:10.858Z,95529.00
2024-04-19T10:37:10.809Z,95530.00
2024-04-19T10:38:10.762Z,95527.00
2024-04-19T10:39:10.764Z,95522.00
2024-04-19T10:40:10.781Z,95519.00
2024-04-19T10:41:10.788Z,95515.00
2024-04-19T10:42:10.849Z,95503.00
2024-04-19T10:43:10.905Z,95513.00
2024-04-19T10:44:10.964Z,95511.00
2024-04-19T10:45:11.019Z,95507.00
2024-04-19T10:46:11.125Z,95503.00
2024-04-19T10:47:11.212Z,95504.00
2024-04-19T10:48:11.330Z,95498.00
2024-04-19T10:49:11.358Z,95501.00
2024-04-19T10:50:11.417Z,95497.00
2024-04-19T10:51:11.462Z,95491.00
2024-04-19T10:52:11.534Z,95484.00
2024-04-19T10:53:11.698Z,95479.00
2024-04-19T10:54:11.660Z,95476.00
2024-04-19T10:55:11.749Z,95471.00
2024-04-19T10:56:11.822Z,95464.00
2024-04-19T10:57:11.920Z,95457.00
2024-04-19T10:58:12.003Z,95452.00
2024-04-19T10:59:12.104Z,95450.00
2024-04-19T11:00:12.199Z,95449.00
2024-04-19T11:01:12.329Z,95447.00
2024-04-19T11:02:12.383Z,95446.00
2024-04-19T11:03:18.388Z,95441.00
2024-04-19T11:04:13.698Z,95436.00
2024-04-19T11:05:12.479Z,95433.00
2024-04-19T11:06:14.606Z,95427.00
2024-04-19T11:07:12.469Z,95429.00
2024-04-19T11:08:12.512Z,95426.00
2024-04-19T11:09:12.548Z,95419.00
2024-04-19T11:10:12.624Z,95416.00
2024-04-19T11:11:12.624Z,95412.00
2024-04-19T11:12:12.628Z,95406.00
2024-04-19T11:13:12.632Z,95402.00
2024-04-19T11:14:12.700Z,95400.00
2024-04-19T11:15:12.722Z,95397.00
2024-04-19T11:16:12.744Z,95394.00
2024-04-19T11:17:13.225Z,95393.00
2024-04-19T11:18:12.882Z,95382.00
2024-04-19T11:19:12.934Z,95391.00
2024-04-19T11:20:12.954Z,95384.00
2024-04-19T11:21:13.916Z,95385.00
2024-04-19T11:22:13.102Z,95382.00
2024-04-19T11:23:13.214Z,95376.00
2024-04-19T11:24:13.270Z,95378.00
2024-04-19T11:25:13.378Z,95377.00
2024-04-19T11:26:13.441Z,95375.00
2024-04-19T11:27:13.591Z,95376.00
2024-04-19T11:28:13.656Z,95375.00
2024-04-19T11:29:13.732Z,95374.00
2024-04-19T11:30:13.854Z,95373.00
2024-04-19T11:31:13.950Z,95365.00
2024-04-19T11:32:14.068Z,95364.00
2024-04-19T11:33:14.167Z,95361.00
2024-04-19T11:34:15.301Z,95358.00
2024-04-19T11:35:14.327Z,95366.00
2024-04-19T11:36:14.425Z,95360.00
2024-04-19T11:37:14.546Z,95360.00
2024-04-19T11:38:14.645Z,95357.00
2024-04-19T11:39:14.753Z,95358.00
2024-04-19T11:40:14.831Z,95352.00
2024-04-19T11:41:14.926Z,95352.00
2024-04-19T11:42:15.015Z,95353.00
2024-04-19T11:43:15.127Z,95347.00
2024-04-19T11:44:15.206Z,95343.00
2024-04-19T11:45:15.307Z,95341.00
2024-04-19T11:46:15.369Z,95337.00